الصفحة الرئيسية
METAR-TAF:

METAR-TAF

مطار :

كوراساو, جزر الأنتيل الهولندية

دائرة عرض: 12-12N, خط طول: 068-58W, ارتفاع: 9 متر

مراقبة الطقس الحالي

تاريخ ووقت الإصدار 55 دقيقة قبل الساعة 04:00UTC
ريح 12 عقدة من الشرق
درجة الحرارة 28°درجة مئوية
الرطوبة 79%
ضغط 1016 hPa
الرؤية 10 كم أو أكثر
غيوم متفرقة على ارتفاع 1700 قدم

METAR: TNCC 180400Z AUTO 10012KT 9999 SCT017 28/24 Q1016 NOSIG

زمن: 00:55 (04:55 UTC)

توقعات

تاريخ ووقت الإصدار 7ساعات و 25 دقيقة قبل الساعة 21:30UTC
التوقعات صالحة من18 الساعة 00 UTC إلى 18 الساعة 24 UTC
ريح 10 عقدة من الشرق
الرؤية 10 كم أو أكثر
غيوم متفرقة على ارتفاع 1800 قدم
نظرية الاحتمالات 30% :
مؤقت
من 18 الساعة 04 UTC إلى 18 الساعة 16 UTC
غيوم مفككة على ارتفاع 1400 قدم

TAF: TNCC 172130Z 1800/1824 09010KT 9999 SCT018 PROB30 TEMPO 1804/1816 BKN014

أرصاد الطقس والتوقعات من أكثر من 4000 مطار (تقارير الطقس للمطار METAR والتنبؤ بالطقس بالمطارTAF).

المحطات المتاحة هي النقط الصفراء والحمراء على الخريطة.

حرك المؤشر فوق النقطة لمعرفة اسم المحطة.

ثم انقر لمعرفة أرصاد وتوقعات الطقس.

لتغيير الخارطة: اضغط على الأزرار الخضراء مع رمز الصليب الأسود للتكبير. على الزر الأخضر مع شرطة للتصغير، أو على الأسهم الخضراء للخرائط المجاورة.


METAR-TAF: